createdAt,value
2023-05-17T13:56:11.271Z,9.38
2023-05-17T13:57:35.045Z,16.88
2023-05-17T13:58:58.599Z,6.28
2023-05-17T14:00:23.140Z,505.40
2023-05-17T14:01:48.999Z,12.82
2023-05-17T14:03:13.377Z,8.88
2023-05-17T14:03:57.188Z,3.92
2023-05-17T14:04:09.700Z,7.15
2023-05-17T14:04:22.667Z,7.63
2023-05-17T14:04:35.214Z,7.65
2023-05-17T14:04:48.680Z,6.30
2023-05-17T14:05:01.745Z,7.80
2023-05-17T14:05:15.007Z,8.05
2023-05-17T14:05:27.540Z,8.35
2023-05-17T14:05:40.540Z,8.30
2023-05-17T14:05:54.310Z,11.07
2023-05-17T14:06:07.739Z,12.77
2023-05-17T14:06:30.824Z,5.40
2023-05-17T14:06:43.376Z,5.15
2023-05-17T14:06:56.606Z,8.15
2023-05-17T14:07:09.364Z,11.60
2023-05-17T14:07:21.768Z,12.23
2023-05-17T14:07:34.229Z,12.05
2023-05-17T14:07:47.983Z,9.65
2023-05-17T14:08:00.482Z,7.70
2023-05-17T14:08:12.922Z,7.40
2023-05-17T14:08:25.607Z,7.25
2023-05-17T14:08:38.120Z,6.72
2023-05-17T14:08:53.189Z,7.30
2023-05-17T14:09:15.769Z,9.25
2023-05-17T14:09:30.563Z,7.13
2023-05-17T14:09:43.667Z,5.80
2023-05-17T14:09:56.118Z,5.80
2023-05-17T14:10:12.178Z,6.20
2023-05-17T14:10:24.626Z,6.35
2023-05-17T14:10:37.130Z,6.28
2023-05-17T14:10:49.545Z,6.72
2023-05-17T14:11:02.403Z,53.10
2023-05-17T14:11:16.434Z,93.15
2023-05-17T14:11:29.207Z,104.72
2023-05-17T14:11:42.833Z,91.45
2023-05-17T14:11:55.930Z,86.07
2023-05-17T14:12:08.594Z,58.88
2023-05-17T14:12:21.168Z,28.08
2023-05-17T14:12:34.646Z,18.27
2023-05-17T14:12:47.206Z,13.90
2023-05-17T14:12:59.755Z,13.05
2023-05-17T14:13:12.676Z,12.55
2023-05-17T14:13:25.707Z,12.07
2023-05-17T14:13:38.217Z,10.60
2023-05-17T14:13:51.800Z,11.73
2023-05-17T14:14:04.332Z,76.78
2023-05-17T14:14:16.824Z,110.38
2023-05-17T14:14:29.967Z,75.72
2023-05-17T14:14:42.380Z,36.40
2023-05-17T14:14:55.082Z,17.95
2023-05-17T14:15:10.664Z,12.97
2023-05-17T14:15:23.321Z,8.82
2023-05-17T14:15:38.277Z,10.35
2023-05-17T14:15:50.826Z,9.18
2023-05-17T14:16:04.269Z,7.45
2023-05-17T14:16:16.691Z,7.83
2023-05-17T14:16:29.181Z,10.35
2023-05-17T14:16:41.710Z,11.77
2023-05-17T14:16:54.171Z,9.45
2023-05-17T14:17:06.643Z,7.93
2023-05-17T14:17:19.270Z,7.90
2023-05-17T14:17:33.566Z,8.60
2023-05-17T14:17:46.220Z,10.00
2023-05-17T14:17:58.735Z,10.27
2023-05-17T14:18:11.348Z,9.10
2023-05-17T14:18:26.301Z,10.40
2023-05-17T14:18:40.002Z,10.10
2023-05-17T14:18:52.873Z,7.68
2023-05-17T14:19:05.621Z,7.35
2023-05-17T14:19:18.241Z,10.30
2023-05-17T14:19:30.938Z,29.48
2023-05-17T14:19:43.850Z,40.80
2023-05-17T14:19:57.910Z,31.58
2023-05-17T14:20:11.581Z,17.95
2023-05-17T14:20:24.392Z,11.13
2023-05-17T14:20:36.926Z,9.30
2023-05-17T14:20:49.690Z,122.10
2023-05-17T14:21:03.416Z,305.02
2023-05-17T14:21:16.904Z,360.25
2023-05-17T14:21:29.399Z,147.60
2023-05-17T14:21:41.817Z,90.18
2023-05-17T14:21:54.329Z,46.70
2023-05-17T14:22:08.772Z,21.58
2023-05-17T14:22:21.270Z,12.18
2023-05-17T14:22:33.708Z,11.23
2023-05-17T14:22:47.205Z,8.88
2023-05-17T14:23:10.818Z,5.22
2023-05-17T14:23:23.398Z,6.75
2023-05-17T14:23:36.168Z,8.90
2023-05-17T14:23:48.612Z,8.93
2023-05-17T14:24:01.226Z,5.75
2023-05-17T14:24:13.758Z,4.63
2023-05-17T14:24:41.627Z,4.00
2023-05-17T14:24:54.052Z,6.45
2023-05-17T14:25:07.524Z,8.60
2023-05-17T14:25:20.054Z,9.57
2023-05-17T14:25:32.554Z,9.67
2023-05-17T14:25:48.985Z,10.73
2023-05-17T14:26:02.783Z,8.77
2023-05-17T14:26:15.264Z,8.52
2023-05-17T14:26:27.676Z,9.25
2023-05-17T14:26:40.162Z,8.80
2023-05-17T14:26:52.617Z,9.00
2023-05-17T14:27:06.688Z,8.25
2023-05-17T14:27:19.221Z,9.05
2023-05-17T14:27:31.662Z,9.95
2023-05-17T14:27:44.142Z,9.38
2023-05-17T14:27:56.635Z,120.65
2023-05-17T14:28:09.159Z,330.70
2023-05-17T14:28:22.668Z,584.88
2023-05-17T14:28:38.079Z,619.67
2023-05-17T14:28:50.822Z,559.05
2023-05-17T14:29:03.353Z,385.98
2023-05-17T14:29:16.557Z,212.25
2023-05-17T14:29:30.358Z,92.85
2023-05-17T14:29:43.745Z,46.50
2023-05-17T14:29:56.412Z,32.40
2023-05-17T14:30:11.525Z,23.77
2023-05-17T14:30:25.550Z,16.23
2023-05-17T14:30:37.946Z,11.23
2023-05-17T14:30:51.831Z,9.88
2023-05-17T14:31:05.046Z,8.48
2023-05-17T14:31:17.486Z,6.97
2023-05-17T14:31:30.220Z,7.65
2023-05-17T14:31:43.260Z,8.18
2023-05-17T14:31:56.774Z,8.43
2023-05-17T14:32:09.279Z,8.63
2023-05-17T14:32:21.712Z,12.07
2023-05-17T14:32:35.490Z,13.60
2023-05-17T14:32:48.210Z,12.80
2023-05-17T14:33:00.754Z,9.38
2023-05-17T14:33:14.360Z,7.28
2023-05-17T14:33:28.276Z,5.68
2023-05-17T14:33:41.208Z,5.35
2023-05-17T14:33:53.896Z,5.80
2023-05-17T14:34:06.540Z,5.20
2023-05-17T14:34:20.172Z,5.68
2023-05-17T14:34:32.855Z,5.72
2023-05-17T14:34:45.505Z,6.93
2023-05-17T14:34:58.086Z,7.57
2023-05-17T14:35:11.447Z,6.32
2023-05-17T14:35:23.983Z,18.35
2023-05-17T15:33:52.943Z,4.13
2023-05-17T15:34:05.491Z,8.32
2023-05-17T15:34:18.016Z,9.30
2023-05-17T15:34:30.688Z,10.30
2023-05-17T15:34:42.780Z,9.82
2023-05-17T15:34:54.861Z,7.70
2023-05-17T15:35:09.502Z,6.45
2023-05-17T15:35:22.054Z,10.07
2023-05-17T15:35:34.276Z,8.90
2023-05-17T15:35:46.419Z,6.72
2023-05-17T15:35:58.588Z,7.03
2023-05-17T15:36:13.090Z,6.82
2023-05-17T15:36:26.611Z,5.07
2023-05-17T15:36:38.724Z,7.07
2023-05-17T15:36:50.800Z,8.20
2023-05-17T15:37:02.981Z,8.77
2023-05-17T15:37:15.186Z,38.88
2023-05-17T15:37:27.760Z,140.90
2023-05-17T15:37:41.365Z,162.05
2023-05-17T15:37:53.769Z,59.20
2023-05-17T15:38:07.004Z,35.97
2023-05-17T15:38:19.187Z,20.42
2023-05-17T15:38:31.718Z,17.70
2023-05-17T15:38:43.938Z,13.80
2023-05-17T15:39:00.379Z,11.15
2023-05-17T15:39:12.502Z,7.47
2023-05-17T15:39:24.718Z,6.78
2023-05-17T15:39:36.998Z,7.75
2023-05-17T15:39:49.250Z,9.10
2023-05-17T15:40:09.370Z,8.52
2023-05-17T15:40:22.854Z,7.28
2023-05-17T15:40:35.048Z,267.33
2023-05-17T15:40:47.272Z,1127.28
2023-05-17T15:41:03.933Z,1605.10
2023-05-17T15:41:21.386Z,1999.90
2023-05-17T15:41:34.580Z,1999.90
2023-05-17T15:41:46.746Z,1616.45
2023-05-17T15:41:58.895Z,1101.50
2023-05-17T15:42:11.181Z,693.25
2023-05-17T15:42:23.483Z,415.55
2023-05-17T15:42:36.697Z,202.43
2023-05-17T15:42:50.005Z,93.95
2023-05-17T15:43:02.306Z,67.35
2023-05-17T15:43:14.503Z,36.58
2023-05-17T15:43:26.696Z,22.50
2023-05-17T15:43:38.926Z,16.00
2023-05-17T15:43:52.094Z,11.68
2023-05-17T15:44:06.535Z,8.48
2023-05-17T15:44:19.287Z,14.68
2023-05-17T15:44:31.451Z,55.72
2023-05-17T15:44:43.687Z,80.88
2023-05-17T15:44:55.850Z,80.32
2023-05-17T15:45:10.427Z,46.85
2023-05-17T15:45:22.727Z,26.25
2023-05-17T15:45:34.947Z,16.70
2023-05-17T15:45:47.152Z,12.60
2023-05-17T15:45:59.879Z,10.82
2023-05-17T15:46:12.324Z,9.73
2023-05-17T15:46:25.815Z,7.75
2023-05-17T15:46:38.170Z,6.15
2023-05-17T15:46:51.168Z,6.63
2023-05-17T15:47:03.702Z,7.82
2023-05-17T15:47:16.137Z,7.97
2023-05-17T15:47:41.872Z,8.85
2023-05-17T15:47:57.226Z,10.07
2023-05-17T15:48:11.411Z,32.55
2023-05-17T15:48:25.936Z,60.05
2023-05-17T15:48:38.554Z,66.45
2023-05-17T15:48:52.255Z,66.15
2023-05-17T15:49:05.479Z,53.90
2023-05-17T15:49:17.774Z,32.92
2023-05-17T15:49:30.236Z,21.05
2023-05-17T15:49:42.470Z,26.58
2023-05-17T15:49:54.680Z,31.38
2023-05-17T15:50:09.305Z,37.35
2023-05-17T15:50:21.680Z,28.17
2023-05-17T15:50:33.802Z,16.50
2023-05-17T15:50:45.966Z,12.98
2023-05-17T15:50:58.738Z,14.43
2023-05-17T15:51:11.170Z,14.38
2023-05-17T15:51:23.394Z,14.02
2023-05-17T15:51:36.693Z,13.98
2023-05-17T15:51:48.903Z,14.27
2023-05-17T15:52:01.124Z,12.63
2023-05-17T15:52:13.344Z,51.83
2023-05-17T15:52:25.927Z,553.85
2023-05-17T15:52:38.788Z,1117.07
2023-05-17T15:52:52.021Z,1263.88
2023-05-17T15:53:04.198Z,766.42
2023-05-17T15:53:16.505Z,620.95
2023-05-17T15:53:30.304Z,1009.83
2023-05-17T15:53:42.642Z,1167.82
2023-05-17T15:53:55.618Z,988.25
2023-05-17T15:54:08.744Z,698.80
2023-05-17T15:54:20.984Z,630.17
2023-05-17T15:54:33.233Z,500.88
2023-05-17T15:54:47.040Z,404.48
2023-05-17T15:54:59.484Z,212.43
2023-05-17T15:55:12.770Z,162.95
2023-05-17T15:55:25.952Z,229.52
2023-05-17T15:55:38.665Z,206.38
2023-05-17T15:55:51.534Z,102.40
2023-05-17T15:56:04.317Z,263.85
2023-05-17T15:56:17.477Z,1071.90
2023-05-17T15:56:29.692Z,1170.00
2023-05-17T15:56:42.120Z,289.42
2023-05-17T15:56:55.588Z,88.68
2023-05-17T15:57:08.213Z,61.72
2023-05-17T15:57:20.937Z,45.13
2023-05-17T15:57:33.087Z,31.02
2023-05-17T15:57:45.215Z,58.63
2023-05-17T15:57:58.285Z,53.50
2023-05-17T15:58:10.971Z,31.85
2023-05-17T15:58:25.363Z,9.13
2023-05-17T15:58:37.716Z,8.70
2023-05-17T15:58:49.923Z,9.80
2023-05-17T15:59:03.158Z,12.15
2023-05-17T15:59:16.052Z,16.95
2023-05-17T15:59:28.342Z,15.30
2023-05-17T15:59:40.573Z,8.50
2023-05-17T15:59:52.852Z,7.47
2023-05-17T16:00:07.739Z,8.07
2023-05-17T16:00:20.992Z,7.13
2023-05-17T16:00:34.058Z,7.05
2023-05-17T16:00:46.934Z,38.42
2023-05-17T16:01:00.096Z,37.50
2023-05-17T16:01:13.682Z,6.70
2023-05-17T16:01:26.124Z,6.13
2023-05-17T16:01:38.594Z,5.32
2023-05-17T16:01:50.967Z,6.88
2023-05-17T16:02:03.275Z,8.40
2023-05-17T16:02:16.635Z,9.18
2023-05-17T16:02:37.901Z,6.47
2023-05-17T16:02:49.989Z,7.57
2023-05-17T16:03:02.139Z,7.50
2023-05-17T16:03:27.399Z,5.28
2023-05-17T16:03:39.434Z,8.32
2023-05-17T16:03:51.553Z,8.00
2023-05-17T16:04:03.664Z,7.88
2023-05-17T16:04:16.304Z,9.65
2023-05-17T16:04:29.407Z,9.35
2023-05-17T16:04:41.522Z,6.50
2023-05-17T16:04:53.518Z,6.40
2023-05-17T16:05:06.474Z,6.50
2023-05-17T16:05:18.615Z,11.52
2023-05-17T16:05:33.861Z,40.80
2023-05-17T16:05:46.921Z,80.25
2023-05-17T16:05:59.047Z,113.03
2023-05-17T16:06:11.229Z,184.98
2023-05-17T16:06:23.298Z,201.85
2023-05-17T16:06:36.705Z,147.77
2023-05-17T16:06:49.743Z,375.73
2023-05-17T16:07:40.431Z,48.13
2023-05-17T16:07:52.435Z,34.25
2023-05-17T16:08:04.577Z,25.88
2023-05-17T16:08:16.566Z,17.33
2023-05-17T16:08:28.554Z,13.68
2023-05-17T16:08:41.070Z,11.45
2023-05-17T16:08:54.487Z,10.70
2023-05-17T16:09:06.703Z,10.75
2023-05-17T16:09:18.692Z,10.70
2023-05-17T16:09:30.712Z,7.97
2023-05-17T16:09:42.689Z,7.10
